Time;durP1;ratioP1;P1;durP2;ratioP2;P2;SDS_P1;SDS_P2;PMS_P1;PMS_P2;Temp;Humidity;BMP_temperature;BMP_pressure;BME280_temperature;BME280_humidity;BME280_pressure;Samples;Min_cycle;Max_cycle;Signal;HPM_P1;HPM_P2
2022/10/27 00:01:02;;;;;;;35.30;24.90;;;;;;;9.15;82.78;101199.73;101143;1290;138992;-81
2022/10/27 00:03:35;;;;;;;40.30;26.10;;;;;;;9.11;82.81;101199.59;101888;1316;95241;-83
2022/10/27 00:06:05;;;;;;;40.20;25.50;;;;;;;9.09;83.07;101200.85;101712;1311;108424;-83
2022/10/27 00:08:34;;;;;;;41.70;26.20;;;;;;;9.07;83.12;101201.56;101492;1297;139440;-82
2022/10/27 00:11:04;;;;;;;41.70;26.40;;;;;;;9.05;83.31;101200.52;101730;1294;107541;-83
2022/10/27 00:13:33;;;;;;;41.10;26.90;;;;;;;9.02;83.21;101197.88;101383;1297;140073;-82
2022/10/27 00:16:10;;;;;;;41.10;26.50;;;;;;;9.01;83.57;101197.00;102056;1310;97050;-82
2022/10/27 00:18:38;;;;;;;43.70;26.90;;;;;;;9.01;83.54;101202.84;102003;1305;107117;-83
2022/10/27 00:21:08;;;;;;;43.10;26.20;;;;;;;8.98;83.61;101203.75;101664;1315;137866;-82
2022/10/27 00:23:38;;;;;;;43.00;25.90;;;;;;;8.94;83.45;101205.73;101495;1293;105561;-83
2022/10/27 00:26:09;;;;;;;41.70;26.70;;;;;;;8.93;83.55;101207.34;101120;1312;140160;-83
2022/10/27 00:28:38;;;;;;;45.00;26.40;;;;;;;8.91;83.54;101209.83;101600;1310;97984;-82
2022/10/27 00:31:18;;;;;;;44.80;26.50;;;;;;;8.90;83.30;101214.98;100650;1293;138983;-81
2022/10/27 00:33:47;;;;;;;51.40;27.90;;;;;;;8.90;83.32;101219.56;101595;1291;96952;-82
2022/10/27 00:36:19;;;;;;;41.70;26.40;;;;;;;8.90;83.29;101223.98;101358;1286;107127;-83
2022/10/27 00:38:48;;;;;;;52.40;25.80;;;;;;;8.91;82.97;101224.88;101219;1313;139298;-81
2022/10/27 00:41:35;;;;;;;49.40;25.40;;;;;;;8.88;82.59;101224.35;101420;1294;95260;-83
2022/10/27 00:44:31;;;;;;;50.60;24.30;;;;;;;8.82;82.34;101230.59;102056;1295;138853;-82
2022/10/27 00:47:28;;;;;;;47.50;23.50;;;;;;;8.74;82.47;101227.27;101867;1292;97640;-81
2022/10/27 00:50:18;;;;;;;38.30;22.70;;;;;;;8.66;82.52;101223.59;102142;1291;137678;-82
2022/10/27 00:52:51;;;;;;;39.90;22.60;;;;;;;8.60;82.43;101227.35;102035;1284;95689;-81
2022/10/27 00:55:27;;;;;;;44.70;23.70;;;;;;;8.55;82.61;101227.02;101954;1313;139390;-83
2022/10/27 00:57:59;;;;;;;40.10;22.50;;;;;;;8.54;82.72;101221.52;101119;1301;106937;-83
2022/10/27 01:00:27;;;;;;;40.40;22.50;;;;;;;8.57;82.49;101221.52;101405;1292;97863;-81
2022/10/27 01:02:58;;;;;;;39.10;23.30;;;;;;;8.55;82.85;101219.05;101089;1310;139069;-81
2022/10/27 01:05:28;;;;;;;37.90;22.50;;;;;;;8.57;82.64;101221.16;101893;1293;95267;-83
2022/10/27 01:07:59;;;;;;;39.40;21.50;;;;;;;8.55;82.32;101228.79;102176;1288;140396;-82
2022/10/27 01:10:28;;;;;;;39.20;22.90;;;;;;;8.55;82.52;101224.89;101407;1293;108547;-82
2022/10/27 01:12:58;;;;;;;40.40;22.60;;;;;;;8.52;82.23;101222.95;101208;1297;98026;-81
2022/10/27 01:15:46;;;;;;;35.50;22.60;;;;;;;8.53;82.43;101224.72;101359;1293;107621;-81
2022/10/27 01:18:29;;;;;;;37.50;22.00;;;;;;;8.55;81.98;101220.47;101645;1291;95964;-83
2022/10/27 01:21:29;;;;;;;37.20;21.80;;;;;;;8.50;81.82;101220.30;101561;1312;138613;-82
2022/10/27 01:24:24;;;;;;;36.00;21.70;;;;;;;8.43;81.74;101215.70;101897;1291;108385;-82
2022/10/27 01:26:58;;;;;;;31.40;21.70;;;;;;;8.34;81.65;101215.39;102021;1301;137657;-81
2022/10/27 01:30:05;;;;;;;30.90;21.00;;;;;;;8.29;81.71;101215.59;101406;1313;106145;-82
2022/10/27 01:32:44;;;;;;;28.60;20.80;;;;;;;8.22;81.84;101208.52;101311;1290;139122;-84
2022/10/27 01:35:41;;;;;;;29.60;21.50;;;;;;;8.19;82.20;101207.65;101343;1291;95269;-83
2022/10/27 01:38:57;;;;;;;29.60;20.50;;;;;;;8.20;82.09;101207.84;101318;1290;140998;-83
2022/10/27 01:41:31;;;;;;;30.70;21.00;;;;;;;8.25;82.07;101207.98;101419;1314;97167;-81
2022/10/27 01:44:07;;;;;;;30.90;21.70;;;;;;;8.25;81.77;101205.15;101144;1299;138634;-81
2022/10/27 01:46:36;;;;;;;29.40;21.00;;;;;;;8.28;82.13;101207.80;101199;1303;95318;-80
2022/10/27 01:49:05;;;;;;;29.00;21.30;;;;;;;8.34;82.13;101213.27;101185;1290;140190;-80
2022/10/27 01:51:36;;;;;;;30.00;20.30;;;;;;;8.42;81.64;101212.52;101173;1294;108560;-81
2022/10/27 01:54:04;;;;;;;28.00;20.20;;;;;;;8.39;80.96;101211.65;101322;1291;98324;-83
2022/10/27 01:57:03;;;;;;;27.10;20.20;;;;;;;8.32;80.51;101210.45;100991;1301;138696;-80
2022/10/27 01:59:47;;;;;;;30.30;21.10;;;;;;;8.25;80.64;101210.31;101435;1292;95529;-82
2022/10/27 02:02:27;;;;;;;31.50;21.80;;;;;;;8.18;80.69;101210.30;101131;1304;138672;-81
2022/10/27 02:05:20;;;;;;;27.40;20.40;;;;;;;8.16;81.20;101210.51;100994;1294;106988;-80
2022/10/27 02:08:23;;;;;;;27.90;20.30;;;;;;;8.27;81.17;101214.52;100805;1297;138779;-80
2022/10/27 02:11:03;;;;;;;27.00;19.30;;;;;;;8.33;80.79;101209.72;101144;1312;107471;-81
2022/10/27 02:13:34;;;;;;;28.60;21.10;;;;;;;8.31;80.11;101211.86;101062;1290;138906;-81
2022/10/27 02:16:28;;;;;;;27.70;20.80;;;;;;;8.32;80.22;101215.05;101090;1293;95441;-81
2022/10/27 02:19:09;;;;;;;28.20;20.10;;;;;;;8.34;79.97;101215.02;101049;1300;108502;-81
2022/10/27 02:21:39;;;;;;;29.00;21.10;;;;;;;8.33;80.06;101216.80;101098;1315;98227;-82
2022/10/27 02:24:07;;;;;;;27.10;20.80;;;;;;;8.31;79.48;101217.52;101065;1292;107630;-83
2022/10/27 02:26:44;;;;;;;26.30;20.20;;;;;;;8.24;79.50;101220.91;100871;1294;138943;-81
2022/10/27 02:29:17;;;;;;;26.00;19.80;;;;;;;8.26;79.74;101224.63;101030;1297;95710;-81
2022/10/27 02:31:49;;;;;;;25.60;19.50;;;;;;;8.25;79.56;101226.40;101013;1295;138938;-81
2022/10/27 02:34:19;;;;;;;27.80;20.50;;;;;;;8.25;79.48;101224.63;101231;1301;97759;-81
2022/10/27 02:36:46;;;;;;;27.60;20.60;;;;;;;8.20;79.54;101227.29;101335;1295;107487;-80
2022/10/27 02:39:14;;;;;;;28.70;21.20;;;;;;;8.22;79.54;101231.36;101114;1290;139046;-82
2022/10/27 02:41:42;;;;;;;29.70;22.20;;;;;;;8.20;79.36;101231.19;100982;1308;95288;-80
2022/10/27 02:44:10;;;;;;;27.50;21.20;;;;;;;8.22;79.27;101232.23;100935;1300;139621;-81
2022/10/27 02:46:38;;;;;;;27.90;21.20;;;;;;;8.27;79.72;101230.28;101192;1290;97910;-81
2022/10/27 02:49:08;;;;;;;28.70;21.60;;;;;;;8.34;79.51;101234.15;101082;1293;138966;-81
2022/10/27 02:51:36;;;;;;;27.90;20.50;;;;;;;8.31;78.94;101237.35;101193;1295;95253;-80
2022/10/27 02:54:03;;;;;;;26.40;20.30;;;;;;;8.30;78.84;101242.65;101012;1303;96309;-80
2022/10/27 02:56:31;;;;;;;26.10;19.90;;;;;;;8.29;78.89;101243.38;101015;1294;138606;-81
2022/10/27 02:58:59;;;;;;;26.40;20.10;;;;;;;8.30;78.91;101247.97;101161;1289;96698;-81
2022/10/27 03:01:27;;;;;;;25.90;19.20;;;;;;;8.24;78.55;101250.63;101051;1307;139585;-81
2022/10/27 03:03:55;;;;;;;26.10;18.80;;;;;;;8.16;78.49;101247.29;101098;1287;96891;-81
2022/10/27 03:06:23;;;;;;;24.60;19.60;;;;;;;8.08;78.60;101245.01;101213;1291;95260;-80
2022/10/27 03:08:51;;;;;;;23.80;18.30;;;;;;;8.09;79.01;101249.61;101130;1290;138784;-81
2022/10/27 03:11:18;;;;;;;24.90;18.60;;;;;;;8.07;78.87;101251.20;101288;1290;97822;-82
2022/10/27 03:13:46;;;;;;;23.90;17.60;;;;;;;8.01;78.63;101248.57;101462;1292;139731;-81
2022/10/27 03:16:14;;;;;;;24.80;18.10;;;;;;;7.99;78.72;101252.30;101165;1294;95748;-81
2022/10/27 03:18:42;;;;;;;25.50;17.80;;;;;;;7.93;78.68;101251.59;101186;1294;95398;-81
2022/10/27 03:21:10;;;;;;;22.80;16.70;;;;;;;7.92;78.76;101251.05;101319;1291;138652;-81
2022/10/27 03:23:38;;;;;;;24.20;18.10;;;;;;;7.88;78.83;101254.60;101518;1298;98072;-81
2022/10/27 03:26:06;;;;;;;21.60;16.80;;;;;;;7.84;78.89;101257.26;101278;1298;138842;-81
2022/10/27 03:28:34;;;;;;;22.20;17.30;;;;;;;7.78;79.04;101254.97;101306;1294;95342;-81
2022/10/27 03:31:04;;;;;;;24.10;16.90;;;;;;;7.70;78.93;101251.44;101229;1292;95339;-83
2022/10/27 03:33:31;;;;;;;21.70;17.00;;;;;;;7.61;79.24;101253.02;101158;1300;107395;-82
2022/10/27 03:35:59;;;;;;;21.80;16.50;;;;;;;7.58;79.62;101250.73;101258;1297;97847;-82
2022/10/27 03:38:27;;;;;;;21.80;16.80;;;;;;;7.63;80.00;101255.86;101101;1290;138752;-82
2022/10/27 03:40:55;;;;;;;21.00;16.20;;;;;;;7.65;79.54;101251.97;101283;1296;96538;-80
2022/10/27 03:43:23;;;;;;;21.60;16.20;;;;;;;7.56;79.32;101251.27;101076;1305;138679;-82
2022/10/27 03:45:51;;;;;;;22.70;17.00;;;;;;;7.50;79.70;101251.98;101111;1296;108139;-82
2022/10/27 03:48:25;;;;;;;22.80;16.20;;;;;;;7.47;79.81;101251.08;101247;1291;97691;-83
2022/10/27 03:50:53;;;;;;;21.50;16.80;;;;;;;7.52;80.09;101254.63;101091;1292;138890;-82
2022/10/27 03:53:21;;;;;;;21.70;15.90;;;;;;;7.51;79.86;101253.73;101364;1297;96216;-83
2022/10/27 03:55:48;;;;;;;21.20;16.50;;;;;;;7.50;80.01;101255.33;100874;1312;138932;-82
2022/10/27 03:58:17;;;;;;;22.70;17.10;;;;;;;7.57;80.08;101256.39;101210;1290;108218;-81
2022/10/27 04:00:45;;;;;;;21.10;16.60;;;;;;;7.63;79.83;101257.63;101252;1297;97636;-80
2022/10/27 04:03:13;;;;;;;21.60;16.20;;;;;;;7.65;79.41;101258.51;101016;1293;139380;-81
2022/10/27 04:05:41;;;;;;;20.70;15.10;;;;;;;7.65;78.97;101257.27;101069;1287;96061;-80
2022/10/27 04:08:09;;;;;;;22.50;16.20;;;;;;;7.66;79.25;101258.69;101051;1294;138744;-81
2022/10/27 04:10:37;;;;;;;21.40;15.90;;;;;;;7.72;79.16;101256.39;101197;1290;109013;-81
2022/10/27 04:13:05;;;;;;;22.60;16.20;;;;;;;7.72;78.34;101262.04;101177;1290;139083;-81
2022/10/27 04:15:32;;;;;;;21.00;15.60;;;;;;;7.67;78.19;101262.40;100995;1291;107905;-81
2022/10/27 04:18:00;;;;;;;20.90;15.40;;;;;;;7.67;78.56;101266.99;101464;1294;96204;-81
2022/10/27 04:20:28;;;;;;;20.90;15.80;;;;;;;7.71;78.31;101262.23;101070;1307;138896;-82
2022/10/27 04:22:57;;;;;;;21.40;16.00;;;;;;;7.67;78.27;101258.69;101226;1292;108552;-80
2022/10/27 04:25:25;;;;;;;21.90;16.60;;;;;;;7.67;78.34;101258.86;101039;1299;138899;-81
2022/10/27 04:28:03;;;;;;;20.80;15.90;;;;;;;7.66;78.30;101261.16;101228;1288;107445;-81
2022/10/27 04:30:31;;;;;;;21.90;15.70;;;;;;;7.66;77.79;101264.17;101245;1298;95355;-80
2022/10/27 04:32:59;;;;;;;21.30;16.40;;;;;;;7.60;78.08;101263.11;101012;1302;139129;-81
2022/10/27 04:35:27;;;;;;;21.30;15.40;;;;;;;7.62;78.04;101268.23;101222;1290;108390;-81
2022/10/27 04:37:56;;;;;;;20.20;15.90;;;;;;;7.60;77.98;101271.23;101213;1293;139229;-80
2022/10/27 04:40:24;;;;;;;20.60;16.30;;;;;;;7.58;77.96;101269.30;101167;1300;107568;-82
2022/10/27 04:42:52;;;;;;;22.10;16.70;;;;;;;7.52;78.02;101266.64;101257;1289;95688;-81
2022/10/27 04:45:20;;;;;;;23.50;17.10;;;;;;;7.50;78.66;101263.27;101113;1287;138494;-81
2022/10/27 04:47:48;;;;;;;24.20;17.80;;;;;;;7.56;78.82;101263.82;101130;1297;108453;-81
2022/10/27 04:50:17;;;;;;;23.60;17.40;;;;;;;7.58;78.59;101269.83;100996;1292;139171;-81
2022/10/27 04:53:02;;;;;;;21.30;16.70;;;;;;;7.61;78.79;101275.30;101065;1290;107261;-81
2022/10/27 04:55:31;;;;;;;23.40;17.30;;;;;;;7.59;78.60;101272.13;101102;1299;139242;-81
2022/10/27 04:58:00;;;;;;;24.00;17.70;;;;;;;7.61;78.58;101274.77;101178;1296;96267;-81
2022/10/27 05:00:33;;;;;;;24.40;17.30;;;;;;;7.63;78.55;101278.30;100778;1289;108498;-82
2022/10/27 05:03:01;;;;;;;21.50;17.80;;;;;;;7.62;78.65;101277.77;101097;1295;139578;-81
2022/10/27 05:05:29;;;;;;;23.80;18.10;;;;;;;7.63;78.89;101279.55;101285;1290;107201;-82
2022/10/27 05:07:59;;;;;;;26.30;19.20;;;;;;;7.66;78.61;101282.73;101326;1313;138861;-81
2022/10/27 05:10:30;;;;;;;23.10;17.80;;;;;;;7.67;78.75;101286.44;101187;1293;95485;-81
2022/10/27 05:12:58;;;;;;;24.60;18.10;;;;;;;7.69;78.76;101291.04;101340;1291;108533;-81
2022/10/27 05:15:27;;;;;;;24.10;18.80;;;;;;;7.73;78.76;101294.04;101038;1292;138888;-80
2022/10/27 05:17:55;;;;;;;24.20;18.10;;;;;;;7.70;78.78;101294.38;101650;1290;107463;-80
2022/10/27 05:20:23;;;;;;;23.90;18.80;;;;;;;7.67;78.67;101297.92;101961;1287;138772;-80
2022/10/27 05:22:51;;;;;;;23.90;18.20;;;;;;;7.68;78.58;101295.80;101625;1293;95235;-79
2022/10/27 05:25:19;;;;;;;24.60;18.60;;;;;;;7.69;78.27;101296.86;101507;1298;138709;-80
2022/10/27 05:27:47;;;;;;;24.00;18.70;;;;;;;7.71;78.18;101295.45;101575;1302;98602;-79
2022/10/27 05:30:14;;;;;;;25.40;18.40;;;;;;;7.70;77.94;101300.21;101774;1309;107277;-78
2022/10/27 05:32:42;;;;;;;24.80;18.50;;;;;;;7.70;78.03;101298.10;101034;1310;140371;-81
2022/10/27 05:35:13;;;;;;;23.60;18.40;;;;;;;7.69;77.78;101301.98;101612;1294;95269;-80
2022/10/27 05:37:45;;;;;;;23.20;18.00;;;;;;;7.69;77.84;101306.58;101292;1290;138105;-81
2022/10/27 05:40:14;;;;;;;23.60;18.00;;;;;;;7.71;77.60;101308.70;101442;1310;98245;-79
2022/10/27 05:42:53;;;;;;;24.40;18.30;;;;;;;7.70;77.79;101311.36;101312;1310;107067;-79
2022/10/27 05:45:23;;;;;;;23.50;18.60;;;;;;;7.63;77.66;101314.72;101468;1295;139095;-81
2022/10/27 05:47:59;;;;;;;22.30;17.70;;;;;;;7.60;77.88;101315.78;101092;1295;96514;-80
2022/10/27 05:50:27;;;;;;;24.00;19.10;;;;;;;7.61;78.13;101320.38;100973;1300;138573;-81
2022/10/27 05:52:56;;;;;;;24.30;18.50;;;;;;;7.63;78.11;101322.67;101161;1314;97939;-80
2022/10/27 05:55:25;;;;;;;25.20;19.10;;;;;;;7.60;78.37;101326.04;100941;1309;138781;-81
2022/10/27 05:58:01;;;;;;;28.20;20.30;;;;;;;7.60;78.88;101329.73;100840;1302;95258;-80
2022/10/27 06:00:32;;;;;;;25.30;20.30;;;;;;;7.59;79.29;101329.21;101221;1291;95290;-81
2022/10/27 06:03:02;;;;;;;28.80;20.70;;;;;;;7.56;79.49;101329.56;101224;1301;139120;-82
2022/10/27 06:05:31;;;;;;;27.90;20.80;;;;;;;7.59;80.24;101330.27;101034;1290;97972;-82
2022/10/27 06:07:59;;;;;;;29.50;20.80;;;;;;;7.65;80.02;101335.23;100980;1310;138853;-81
2022/10/27 06:10:28;;;;;;;27.40;21.10;;;;;;;7.71;80.04;101342.65;101112;1292;95338;-82
2022/10/27 06:13:02;;;;;;;29.30;22.00;;;;;;;7.74;79.89;101347.95;101136;1313;96191;-79
2022/10/27 06:15:31;;;;;;;28.40;21.30;;;;;;;7.77;80.27;101349.38;101172;1293;138466;-79
2022/10/27 06:17:59;;;;;;;28.60;21.70;;;;;;;7.82;80.42;101350.78;101317;1289;96222;-82
2022/10/27 06:20:27;;;;;;;28.50;21.10;;;;;;;7.84;80.59;101347.78;100877;1302;138697;-82
2022/10/27 06:22:55;;;;;;;30.30;21.70;;;;;;;7.85;80.61;101345.83;101162;1295;95362;-82
2022/10/27 06:25:23;;;;;;;28.10;21.30;;;;;;;7.87;81.19;101350.44;101362;1298;139399;-81
2022/10/27 06:27:51;;;;;;;29.60;21.60;;;;;;;7.90;81.15;101347.96;101167;1294;108546;-85
2022/10/27 06:30:20;;;;;;;30.60;21.60;;;;;;;7.92;81.50;101349.21;101236;1314;98066;-81
2022/10/27 06:32:47;;;;;;;30.30;21.80;;;;;;;7.95;81.68;101359.10;101361;1306;139261;-81
2022/10/27 06:35:16;;;;;;;31.80;21.90;;;;;;;7.98;81.75;101360.52;101142;1287;95436;-82
2022/10/27 06:37:45;;;;;;;28.00;22.00;;;;;;;8.02;81.49;101364.05;101433;1298;138770;-83
2022/10/27 06:40:16;;;;;;;30.10;22.20;;;;;;;8.05;81.69;101370.42;101319;1290;108830;-80
2022/10/27 06:42:48;;;;;;;30.00;21.70;;;;;;;8.12;81.99;101365.81;101087;1290;97917;-80
2022/10/27 06:45:34;;;;;;;28.80;21.20;;;;;;;8.25;82.00;101367.58;101111;1291;107852;-81
2022/10/27 06:48:05;;;;;;;31.50;22.50;;;;;;;8.32;81.69;101369.34;100979;1293;96872;-82
2022/10/27 06:50:34;;;;;;;30.10;22.30;;;;;;;8.35;81.59;101368.98;100929;1299;138850;-83
2022/10/27 06:53:02;;;;;;;30.80;22.40;;;;;;;8.41;81.69;101372.33;101159;1307;106881;-82
2022/10/27 06:55:31;;;;;;;27.80;21.80;;;;;;;8.47;81.61;101377.30;100807;1316;137865;-82
2022/10/27 06:57:59;;;;;;;28.60;21.40;;;;;;;8.54;81.76;101375.52;101059;1306;107422;-80
2022/10/27 07:00:27;;;;;;;28.20;22.30;;;;;;;8.61;81.70;101377.63;101077;1309;96761;-83
2022/10/27 07:02:55;;;;;;;30.40;22.70;;;;;;;8.63;81.44;101373.19;100915;1308;138759;-82
2022/10/27 07:05:24;;;;;;;28.90;22.50;;;;;;;8.67;81.81;101376.73;100959;1307;108508;-80
2022/10/27 07:07:53;;;;;;;30.60;21.90;;;;;;;8.72;81.89;101377.08;101317;1291;138917;-82
2022/10/27 07:10:21;;;;;;;30.90;22.20;;;;;;;8.76;81.77;101373.88;101364;1294;107614;-80
2022/10/27 07:12:57;;;;;;;28.70;22.30;;;;;;;8.82;81.91;101374.38;101460;1294;95734;-79
2022/10/27 07:15:30;;;;;;;30.50;22.60;;;;;;;8.94;82.12;101377.52;101126;1311;139099;-82
2022/10/27 07:18:01;;;;;;;29.70;22.10;;;;;;;9.00;81.97;101378.20;101189;1313;108392;-80
2022/10/27 07:20:30;;;;;;;29.70;20.90;;;;;;;9.07;82.00;101382.27;101063;1293;139023;-83
2022/10/27 07:22:58;;;;;;;29.30;21.10;;;;;;;9.15;81.85;101385.59;101204;1309;106278;-82
2022/10/27 07:25:27;;;;;;;27.90;21.20;;;;;;;9.23;81.89;101390.52;101010;1289;139556;-82
2022/10/27 07:27:55;;;;;;;28.40;21.30;;;;;;;9.31;81.85;101389.77;101368;1309;96561;-81
2022/10/27 07:30:38;;;;;;;26.40;21.10;;;;;;;9.40;82.08;101392.73;101256;1289;107447;-83
2022/10/27 07:33:06;;;;;;;26.80;20.20;;;;;;;9.49;81.81;101395.88;101284;1289;139489;-81
2022/10/27 07:35:34;;;;;;;27.90;21.20;;;;;;;9.58;81.59;101396.53;100952;1302;106552;-81
2022/10/27 07:38:02;;;;;;;27.90;21.00;;;;;;;9.64;81.50;101393.31;101091;1299;139403;-80
2022/10/27 07:40:30;;;;;;;31.00;21.30;;;;;;;9.65;81.30;101399.14;101096;1286;95795;-80
2022/10/27 07:43:01;;;;;;;28.60;21.20;;;;;;;9.67;81.47;101403.20;101144;1310;108409;-80
2022/10/27 07:45:37;;;;;;;28.30;20.70;;;;;;;9.77;81.58;101403.86;100904;1300;98647;-82
2022/10/27 07:48:09;;;;;;;28.50;21.00;;;;;;;9.89;81.57;101403.23;101279;1292;107444;-81
2022/10/27 07:50:37;;;;;;;29.20;20.90;;;;;;;10.03;81.70;101405.96;101493;1293;139207;-80
2022/10/27 07:53:06;;;;;;;26.80;20.00;;;;;;;10.18;81.61;101405.50;101052;1305;95710;-78
2022/10/27 07:55:35;;;;;;;26.00;19.80;;;;;;;10.28;81.38;101400.09;101221;1288;139459;-80
2022/10/27 07:58:13;;;;;;;26.40;19.20;;;;;;;10.42;81.64;101402.11;100921;1292;96808;-81
2022/10/27 08:00:44;;;;;;;25.30;18.90;;;;;;;10.59;81.50;101408.69;100946;1291;107479;-80
2022/10/27 08:03:18;;;;;;;26.10;18.70;;;;;;;10.74;81.38;101408.55;101125;1312;139996;-80
2022/10/27 08:05:47;;;;;;;25.80;19.20;;;;;;;10.79;80.94;101407.25;101266;1291;95210;-79
2022/10/27 08:08:15;;;;;;;23.60;18.30;;;;;;;10.89;81.11;101405.55;100732;1292;138939;-79
2022/10/27 08:10:45;;;;;;;24.40;18.10;;;;;;;10.97;80.84;101407.75;100707;1313;96898;-81
2022/10/27 08:13:13;;;;;;;24.60;18.10;;;;;;;11.09;80.81;101410.99;100800;1289;139502;-79
2022/10/27 08:15:41;;;;;;;23.70;17.20;;;;;;;11.20;80.65;101415.84;100852;1307;95313;-78
2022/10/27 08:18:10;;;;;;;22.80;17.60;;;;;;;11.31;80.55;101418.54;100730;1298;95666;-80
2022/10/27 08:20:40;;;;;;;24.10;17.70;;;;;;;11.40;80.26;101417.70;100498;1298;139071;-80
2022/10/27 08:23:14;;;;;;;22.80;17.20;;;;;;;11.49;80.12;101416.88;100927;1293;98079;-80
2022/10/27 08:25:43;;;;;;;21.50;17.20;;;;;;;11.60;79.98;101412.99;100663;1286;138677;-80
2022/10/27 08:28:14;;;;;;;23.30;17.80;;;;;;;11.68;79.77;101405.93;100986;1291;95666;-80
2022/10/27 08:30:43;;;;;;;21.90;17.60;;;;;;;11.76;79.63;101409.38;100881;1310;95301;-79
2022/10/27 08:33:20;;;;;;;23.40;17.60;;;;;;;11.88;79.96;101411.52;100771;1290;139267;-79
2022/10/27 08:35:49;;;;;;;21.80;17.00;;;;;;;12.03;80.04;101413.63;101208;1294;98056;-81
2022/10/27 08:38:18;;;;;;;22.40;17.00;;;;;;;12.18;79.52;101409.28;100743;1287;139248;-80
2022/10/27 08:41:13;;;;;;;23.70;16.50;;;;;;;12.28;79.03;101408.92;100808;1293;95246;-80
2022/10/27 08:44:09;;;;;;;20.40;15.90;;;;;;;12.49;78.61;101402.52;101081;1297;139166;-80
2022/10/27 08:46:52;;;;;;;22.10;16.60;;;;;;;12.87;77.48;101404.83;100809;1303;108272;-79
2022/10/27 08:49:39;;;;;;;21.60;16.00;;;;;;;12.99;76.81;101405.84;100760;1304;139344;-80
2022/10/27 08:52:38;;;;;;;20.40;15.50;;;;;;;13.09;77.04;101409.02;100793;1297;107464;-80
2022/10/27 08:55:12;;;;;;;21.20;15.20;;;;;;;13.17;76.48;101409.75;100766;1295;95385;-80
2022/10/27 08:57:54;;;;;;;20.00;15.40;;;;;;;13.26;76.26;101412.23;100937;1291;95356;-80
2022/10/27 09:00:22;;;;;;;21.40;14.10;;;;;;;13.54;75.88;101416.30;100876;1299;108112;-80
2022/10/27 09:03:12;;;;;;;21.40;14.50;;;;;;;13.63;74.79;101412.18;100676;1293;139055;-80
2022/10/27 09:05:59;;;;;;;21.30;14.90;;;;;;;13.77;74.61;101409.54;100787;1292;107378;-80
2022/10/27 09:08:46;;;;;;;18.80;13.60;;;;;;;14.31;74.15;101406.95;100724;1291;139680;-81
2022/10/27 09:11:47;;;;;;;17.90;13.00;;;;;;;16.23;70.14;101401.31;100851;1301;95731;-79
2022/10/27 09:14:15;;;;;;;15.70;12.60;;;;;;;18.33;63.85;101402.20;100416;1303;139136;-80
2022/10/27 09:17:02;;;;;;;16.20;11.60;;;;;;;19.48;59.99;101404.84;100896;1304;96776;-79
2022/10/27 09:19:39;;;;;;;15.10;10.90;;;;;;;19.71;59.08;101408.79;101336;1298;139124;-79
2022/10/27 09:22:14;;;;;;;15.90;11.10;;;;;;;21.24;56.08;101407.66;101126;1286;95881;-79
2022/10/27 09:24:42;;;;;;;17.50;12.00;;;;;;;22.08;53.17;101406.41;100825;1299;95185;-80
2022/10/27 09:27:14;;;;;;;14.50;10.80;;;;;;;21.84;53.12;101412.83;100628;1311;138394;-78
2022/10/27 09:29:42;;;;;;;18.20;11.60;;;;;;;21.16;53.79;101411.54;100897;1309;98411;-80
2022/10/27 09:32:17;;;;;;;15.60;10.10;;;;;;;20.46;54.97;101409.79;100632;1308;138865;-79
2022/10/27 09:34:52;;;;;;;15.60;9.40;;;;;;;19.78;55.83;101410.62;100832;1294;96299;-79
2022/10/27 09:37:20;;;;;;;13.30;9.40;;;;;;;19.20;56.31;101410.65;100849;1290;138127;-79
2022/10/27 09:39:51;;;;;;;14.90;9.30;;;;;;;18.71;57.86;101405.84;100797;1287;107489;-78
2022/10/27 09:42:20;;;;;;;14.40;9.60;;;;;;;18.31;58.67;101405.00;100944;1283;98454;-79
2022/10/27 09:44:59;;;;;;;14.70;9.20;;;;;;;17.98;59.59;101409.42;100683;1287;138550;-80
2022/10/27 09:47:38;;;;;;;16.20;9.20;;;;;;;17.62;60.42;101418.05;100884;1292;95405;-79
2022/10/27 09:50:16;;;;;;;15.40;9.70;;;;;;;17.34;61.36;101416.78;100876;1294;138689;-79
2022/10/27 09:52:44;;;;;;;16.10;9.90;;;;;;;17.17;61.96;101412.41;100872;1284;108259;-81
2022/10/27 09:55:12;;;;;;;15.10;9.70;;;;;;;16.93;62.21;101411.50;100682;1312;138975;-78
2022/10/27 09:57:42;;;;;;;16.00;9.70;;;;;;;16.65;62.57;101412.81;100858;1290;106062;-79
2022/10/27 10:00:14;;;;;;;14.50;9.40;;;;;;;16.44;63.66;101411.41;100807;1286;95860;-79
2022/10/27 10:02:54;;;;;;;15.60;10.40;;;;;;;16.33;64.41;101415.36;101064;1290;138709;-79
2022/10/27 10:05:26;;;;;;;17.40;9.90;;;;;;;16.17;64.56;101420.91;100828;1291;108443;-80
2022/10/27 10:08:24;;;;;;;15.60;10.10;;;;;;;16.00;65.19;101416.63;100697;1290;139341;-79
2022/10/27 10:10:58;;;;;;;16.30;10.60;;;;;;;15.94;66.07;101414.14;100927;1289;107465;-80
2022/10/27 10:13:28;;;;;;;15.10;9.60;;;;;;;15.92;66.08;101418.84;100741;1311;139681;-79
2022/10/27 10:16:15;;;;;;;15.00;9.50;;;;;;;15.84;66.34;101413.20;100830;1293;95375;-82
2022/10/27 10:18:59;;;;;;;16.40;9.80;;;;;;;15.80;66.79;101412.42;100875;1294;108348;-81
2022/10/27 10:21:58;;;;;;;16.10;10.50;;;;;;;15.80;67.13;101415.11;100757;1293;138900;-79
2022/10/27 10:24:33;;;;;;;15.10;9.60;;;;;;;15.76;67.35;101419.35;100600;1312;106807;-80
2022/10/27 10:27:04;;;;;;;16.00;9.90;;;;;;;15.76;67.69;101420.06;101061;1287;139413;-79
2022/10/27 10:29:54;;;;;;;14.70;9.70;;;;;;;15.76;67.82;101418.96;100736;1311;95873;-79
2022/10/27 10:32:27;;;;;;;14.60;9.80;;;;;;;15.79;67.94;101416.57;100733;1283;138968;-79
2022/10/27 10:34:56;;;;;;;16.30;8.80;;;;;;;15.78;67.79;101417.14;100775;1294;98068;-81
2022/10/27 10:37:42;;;;;;;17.60;8.90;;;;;;;15.77;68.06;101418.58;100714;1294;138958;-81
2022/10/27 10:40:10;;;;;;;22.70;9.10;;;;;;;15.80;68.92;101411.91;100890;1290;95603;-80
2022/10/27 10:42:43;;;;;;;17.00;8.70;;;;;;;15.85;68.84;101408.34;100941;1307;95692;-81
2022/10/27 10:45:20;;;;;;;15.50;8.60;;;;;;;15.89;68.72;101405.54;100639;1312;138800;-81
2022/10/27 10:48:00;;;;;;;13.00;8.10;;;;;;;15.92;67.88;101402.23;100882;1307;97906;-80
2022/10/27 10:50:44;;;;;;;12.00;7.30;;;;;;;15.92;67.55;101397.91;101247;1307;138894;-82
2022/10/27 10:53:37;;;;;;;12.20;7.30;;;;;;;15.95;67.46;101395.66;101767;1310;96565;-81
2022/10/27 10:56:37;;;;;;;13.10;7.10;;;;;;;15.99;66.61;101402.34;101264;1304;139030;-79
2022/10/27 10:59:14;;;;;;;12.90;7.00;;;;;;;16.04;66.99;101406.48;100933;1305;108399;-77
2022/10/27 11:01:58;;;;;;;11.40;6.70;;;;;;;16.07;66.43;101409.09;100965;1287;139464;-80
2022/10/27 11:04:30;;;;;;;11.20;6.60;;;;;;;16.07;66.32;101408.71;100740;1303;107488;-79
2022/10/27 11:07:31;;;;;;;12.70;6.90;;;;;;;16.08;66.22;101409.91;100870;1290;95786;-79
2022/10/27 11:10:13;;;;;;;14.80;7.70;;;;;;;16.12;66.98;101410.89;100896;1293;96823;-79
2022/10/27 11:12:48;;;;;;;13.40;7.90;;;;;;;16.15;66.60;101406.83;100966;1290;109238;-79
2022/10/27 11:15:30;;;;;;;14.20;7.20;;;;;;;16.16;66.39;101406.98;100719;1311;138958;-79
2022/10/27 11:18:07;;;;;;;13.00;6.80;;;;;;;16.19;66.13;101397.19;100824;1291;107488;-79
2022/10/27 11:20:36;;;;;;;11.40;6.10;;;;;;;16.24;66.46;101396.50;100649;1284;138879;-80
2022/10/27 11:23:17;;;;;;;12.20;6.50;;;;;;;16.27;65.63;101402.14;100824;1310;95849;-81
2022/10/27 11:25:46;;;;;;;10.90;6.40;;;;;;;16.30;65.33;101401.84;100736;1311;139449;-80
2022/10/27 11:28:42;;;;;;;12.30;6.60;;;;;;;16.33;64.96;101399.25;100817;1310;98564;-80
2022/10/27 11:31:25;;;;;;;11.60;6.00;;;;;;;16.36;65.36;101401.82;100868;1307;107490;-78